Gerton, NC

08:12 EDT, 26. Sentaber, 2016 (GMT -0400)
Rabbit Run Creekside | | Change Station

Elev 2835 ft 35.48 °N, 82.35 °W | Updated 21 minutes ago

Clear
Ayaz
64.2 °F
Feels Like 64.2 °F
N
0.0
Cel Üzgärüçän Cel from ÇKÇ
Gusts 0.0 mil/seğ

Bogön
High -- | Low -- °F
--% Chance of Precip.
Kiçä
High -- | Low -- °F
Precip. -- in
Basım 30.09 in
Köriniwçenlik 7.0 mil
Bolıtlı Ayaz
Çıq noqtası 61 °F
Dımlıq 90%
Rainfall 0.00 in
Qar bieklege Not available.
7:20 AM 7:19 PM
Waning Crescent, 19% visible
METAR KAVL 261154Z 00000KT 7SM CLR 19/17 A3016 RMK AO2 SLP188 T01940172 10211 20189 52005
Basım 30.09 in
Köriniwçenlik 7.0 mil
Bolıtlı Ayaz
Çıq noqtası 61 °F
Dımlıq 90%
Rainfall 0.00 in
Qar bieklege Not available.
7:20 AM 7:19 PM
Waning Crescent, 19% visible
METAR KAVL 261154Z 00000KT 7SM CLR 19/17 A3016 RMK AO2 SLP188 T01940172 10211 20189 52005

10-Day Weather Forecast

Almanac

Kükbelem

Sep. 26, 2016 Rise Set
Anıñ çağı
Tormışlı qaranğı
Diñgezdä qarañğı
Küktä qarañğı
Ay
Kürenmäle yaqtı ozınlığı
Kön ozınlığı
Tomorrow will be .
, % of the Moon is Illuminated

Today's Extremes

State Highs State Lows

Community

WunderPhotos

Upload Photos

1,941,863 photos uploaded!

WunderBlog® & News

Nearby

Hawa Sífatı

  Hawa Sífatı HS İndekse Pıçratqıç
Not available.

Qar terenligi

Station Depth Böyiklik

Earthquake Activity

Qala Distance Mag. Time & Date
Minimum magnitude displayed is 2.5.

Coastal Water Temperatures

Orın Cılılıq

Stations

Nearby Weather Stations

Station Location Cılılıq Cel köçi Çıq noqtası Dımlıq Cel Precip. Elev Yañartılıw Töri
                   

Watches & Warnings

There are currently no watches in effect.